createdAt,value
2023-01-18T00:02:55.043Z,44.74
2023-01-18T00:12:58.478Z,44.92
2023-01-18T00:23:00.746Z,44.70
2023-01-18T00:33:02.236Z,44.83
2023-01-18T00:43:22.418Z,44.83
2023-01-18T00:53:23.796Z,44.88
2023-01-18T01:03:25.392Z,44.82
2023-01-18T01:13:45.512Z,44.95
2023-01-18T01:24:05.580Z,44.76
2023-01-18T01:34:07.218Z,44.41
2023-01-18T01:44:17.783Z,44.08
2023-01-18T01:54:25.628Z,43.67
2023-01-18T02:04:27.045Z,43.53
2023-01-18T02:14:28.474Z,43.27
2023-01-18T02:25:07.428Z,43.28
2023-01-18T02:35:16.370Z,43.17
2023-01-18T02:45:42.515Z,43.10
2023-01-18T02:56:04.871Z,43.06
2023-01-18T03:06:06.503Z,42.96
2023-01-18T03:16:14.743Z,43.10
2023-01-18T03:26:18.156Z,43.38
2023-01-18T03:36:31.565Z,43.55
2023-01-18T03:46:33.173Z,43.69
2023-01-18T03:56:38.963Z,43.78
2023-01-18T04:06:40.519Z,43.81
2023-01-18T04:16:41.994Z,44.07
2023-01-18T04:26:43.496Z,44.33
2023-01-18T04:36:45.035Z,44.72
2023-01-18T04:46:47.464Z,44.76
2023-01-18T04:56:49.001Z,44.88
2023-01-18T05:06:50.410Z,44.72
2023-01-18T05:16:51.832Z,44.37
2023-01-18T05:26:53.232Z,44.07
2023-01-18T05:36:54.650Z,43.55
2023-01-18T05:46:56.048Z,43.42
2023-01-18T05:56:58.788Z,43.09
2023-01-18T06:07:00.296Z,42.83
2023-01-18T06:17:01.809Z,42.83
2023-01-18T06:27:04.080Z,42.76
2023-01-18T06:37:05.507Z,42.91
2023-01-18T06:47:06.889Z,42.87
2023-01-18T06:57:08.272Z,42.74
2023-01-18T07:07:09.709Z,42.85
2023-01-18T07:17:11.108Z,42.63
2023-01-18T07:27:12.540Z,42.52
2023-01-18T07:37:13.922Z,42.71
2023-01-18T07:47:15.300Z,42.65
2023-01-18T07:57:16.718Z,42.66
2023-01-18T08:07:18.499Z,42.63
2023-01-18T08:17:20.236Z,42.44
2023-01-18T08:27:22.383Z,42.23
2023-01-18T08:37:23.813Z,42.11
2023-01-18T08:47:25.189Z,41.99
2023-01-18T08:57:27.671Z,41.64
2023-01-18T09:07:29.048Z,41.32
2023-01-18T09:17:30.592Z,41.07
2023-01-18T09:27:32.228Z,41.52
2023-01-18T09:37:33.612Z,41.54
2023-01-18T09:47:40.025Z,41.39
2023-01-18T09:57:50.531Z,41.29
2023-01-18T10:08:13.416Z,41.09
2023-01-18T10:18:15.888Z,41.09
2023-01-18T10:28:39.507Z,41.17
2023-01-18T10:38:41.053Z,41.09
2023-01-18T10:48:50.178Z,41.10
2023-01-18T10:58:51.412Z,41.28
2023-01-18T11:08:52.875Z,41.38
2023-01-18T11:18:58.390Z,41.33
2023-01-18T11:29:04.603Z,41.38
2023-01-18T11:39:18.125Z,41.29
2023-01-18T11:49:43.003Z,41.42
2023-01-18T11:59:45.562Z,41.41
2023-01-18T12:09:55.921Z,41.36
2023-01-18T12:20:00.743Z,41.37
2023-01-18T12:30:13.822Z,41.36
2023-01-18T12:40:46.464Z,41.46
2023-01-18T12:50:49.291Z,41.41
2023-01-18T13:00:56.688Z,41.42
2023-01-18T13:11:05.500Z,41.45
2023-01-18T13:21:16.760Z,41.62
2023-01-18T13:31:20.296Z,41.58
2023-01-18T13:41:26.313Z,41.78
2023-01-18T13:51:49.384Z,41.89
2023-01-18T14:01:50.945Z,42.03
2023-01-18T14:11:56.827Z,41.91
2023-01-18T14:22:13.280Z,42.02
2023-01-18T14:32:21.712Z,42.14
2023-01-18T14:42:23.108Z,42.26
2023-01-18T14:52:27.507Z,42.30
2023-01-18T15:02:36.660Z,42.37
2023-01-18T15:12:38.285Z,42.30
2023-01-18T15:22:40.863Z,42.50
2023-01-18T15:32:42.386Z,42.58
2023-01-18T15:42:59.286Z,42.70
2023-01-18T15:53:12.161Z,42.70
2023-01-18T16:03:25.526Z,42.81
2023-01-18T16:13:35.550Z,42.91
2023-01-18T16:23:36.933Z,42.94
2023-01-18T16:33:38.334Z,43.20
2023-01-18T16:43:39.921Z,43.20
2023-01-18T16:53:41.628Z,43.32
2023-01-18T17:03:43.222Z,43.55
2023-01-18T17:13:44.873Z,43.49
2023-01-18T17:23:46.465Z,43.40
2023-01-18T17:33:47.874Z,43.46
2023-01-18T17:43:49.473Z,43.54
2023-01-18T17:53:50.863Z,43.58
2023-01-18T18:03:52.519Z,43.75
2023-01-18T18:13:54.331Z,43.45
2023-01-18T18:23:55.897Z,43.16
2023-01-18T18:33:57.469Z,42.93
2023-01-18T18:43:58.961Z,42.67
2023-01-18T18:54:00.421Z,42.48
2023-01-18T19:04:01.834Z,42.39
2023-01-18T19:14:03.250Z,42.15
2023-01-18T19:24:05.127Z,42.08
2023-01-18T19:34:06.606Z,42.13
2023-01-18T19:44:08.878Z,41.99
2023-01-18T19:54:12.463Z,41.96
2023-01-18T20:04:14.065Z,42.23
2023-01-18T20:14:15.522Z,42.44
2023-01-18T20:24:16.918Z,42.64
2023-01-18T20:34:18.750Z,42.96
2023-01-18T20:44:20.668Z,42.99
2023-01-18T20:54:22.170Z,43.08
2023-01-18T21:04:23.579Z,43.17
2023-01-18T21:14:24.978Z,43.10
2023-01-18T21:24:26.506Z,42.88
2023-01-18T21:34:27.891Z,43.29
2023-01-18T21:44:48.399Z,42.93
2023-01-18T21:54:49.834Z,43.18
2023-01-18T22:05:00.220Z,42.83
2023-01-18T22:15:02.263Z,42.24
2023-01-18T22:25:04.145Z,42.07
2023-01-18T22:35:05.817Z,41.94
2023-01-18T22:45:07.678Z,41.73
2023-01-18T22:55:09.421Z,41.60
2023-01-18T23:05:11.005Z,41.73
2023-01-18T23:15:30.653Z,41.50
2023-01-18T23:25:34.845Z,41.51
2023-01-18T23:35:36.225Z,41.66
2023-01-18T23:45:56.101Z,41.43
2023-01-18T23:55:57.700Z,41.51
